sensor_id;sensor_type;location;lat;lon;timestamp;pressure;altitude;pressure_sealevel;temperature;humidity
23164;BME280;31429;42.674;23.350;2023-05-14T00:00:27;95230.50;;;14.87;94.75
23164;BME280;31429;42.674;23.350;2023-05-14T00:01:28;95224.69;;;15.01;96.10
23164;BME280;31429;42.674;23.350;2023-05-14T00:02:30;95227.00;;;14.88;93.12
23164;BME280;31429;42.674;23.350;2023-05-14T00:03:31;95226.16;;;14.87;94.71
23164;BME280;31429;42.674;23.350;2023-05-14T00:04:31;95228.97;;;14.83;94.45
23164;BME280;31429;42.674;23.350;2023-05-14T00:05:32;95231.81;;;14.77;94.50
23164;BME280;31429;42.674;23.350;2023-05-14T00:06:33;95221.75;;;14.72;95.48
23164;BME280;31429;42.674;23.350;2023-05-14T00:07:33;95222.59;;;14.73;94.22
23164;BME280;31429;42.674;23.350;2023-05-14T00:08:34;95220.16;;;14.70;95.66
23164;BME280;31429;42.674;23.350;2023-05-14T00:09:35;95223.63;;;14.69;95.88
23164;BME280;31429;42.674;23.350;2023-05-14T00:10:35;95222.03;;;14.66;96.20
23164;BME280;31429;42.674;23.350;2023-05-14T00:11:36;95222.84;;;14.85;100.00
23164;BME280;31429;42.674;23.350;2023-05-14T00:12:37;95228.63;;;14.72;97.40
23164;BME280;31429;42.674;23.350;2023-05-14T00:13:37;95227.94;;;14.68;95.93
23164;BME280;31429;42.674;23.350;2023-05-14T00:14:38;95224.72;;;14.63;96.97
23164;BME280;31429;42.674;23.350;2023-05-14T00:15:39;95223.16;;;14.61;97.64
23164;BME280;31429;42.674;23.350;2023-05-14T00:16:39;95216.59;;;14.72;97.91
23164;BME280;31429;42.674;23.350;2023-05-14T00:17:41;95222.63;;;14.71;97.07
23164;BME280;31429;42.674;23.350;2023-05-14T00:18:42;95217.56;;;14.70;96.83
23164;BME280;31429;42.674;23.350;2023-05-14T00:19:43;95221.94;;;14.68;95.46
23164;BME280;31429;42.674;23.350;2023-05-14T00:20:43;95217.00;;;14.63;95.25
23164;BME280;31429;42.674;23.350;2023-05-14T00:21:44;95212.06;;;14.77;97.92
23164;BME280;31429;42.674;23.350;2023-05-14T00:22:45;95215.47;;;14.78;96.28
23164;BME280;31429;42.674;23.350;2023-05-14T00:23:45;95216.59;;;14.72;97.28
23164;BME280;31429;42.674;23.350;2023-05-14T00:24:46;95222.91;;;14.84;99.05
23164;BME280;31429;42.674;23.350;2023-05-14T00:25:47;95210.47;;;14.75;96.54
23164;BME280;31429;42.674;23.350;2023-05-14T00:26:47;95211.31;;;14.75;96.31
23164;BME280;31429;42.674;23.350;2023-05-14T00:27:48;95214.31;;;14.66;95.92
23164;BME280;31429;42.674;23.350;2023-05-14T00:28:49;95209.00;;;14.69;100.00
23164;BME280;31429;42.674;23.350;2023-05-14T00:29:49;95204.47;;;14.74;95.99
23164;BME280;31429;42.674;23.350;2023-05-14T00:30:50;95203.94;;;14.68;95.23
23164;BME280;31429;42.674;23.350;2023-05-14T00:31:51;95197.28;;;14.64;95.21
23164;BME280;31429;42.674;23.350;2023-05-14T00:32:53;95203.88;;;14.69;98.46
23164;BME280;31429;42.674;23.350;2023-05-14T00:33:53;95197.50;;;14.76;98.62
23164;BME280;31429;42.674;23.350;2023-05-14T00:34:54;95200.31;;;14.72;95.57
23164;BME280;31429;42.674;23.350;2023-05-14T00:35:55;95196.44;;;14.63;95.39
23164;BME280;31429;42.674;23.350;2023-05-14T00:36:55;95195.59;;;14.63;95.71
23164;BME280;31429;42.674;23.350;2023-05-14T00:37:56;95202.59;;;14.59;96.18
23164;BME280;31429;42.674;23.350;2023-05-14T00:38:57;95195.69;;;14.61;94.81
23164;BME280;31429;42.674;23.350;2023-05-14T00:39:57;95200.19;;;14.56;94.19
23164;BME280;31429;42.674;23.350;2023-05-14T00:40:58;95196.28;;;14.48;96.80
23164;BME280;31429;42.674;23.350;2023-05-14T00:41:59;95202.00;;;14.54;97.34
23164;BME280;31429;42.674;23.350;2023-05-14T00:42:59;95201.78;;;14.59;96.47
23164;BME280;31429;42.674;23.350;2023-05-14T00:44:02;95194.88;;;14.59;100.00
23164;BME280;31429;42.674;23.350;2023-05-14T00:45:03;95201.56;;;14.63;94.56
23164;BME280;31429;42.674;23.350;2023-05-14T00:46:04;95195.44;;;14.66;100.00
23164;BME280;31429;42.674;23.350;2023-05-14T00:47:05;95196.44;;;14.63;96.48
23164;BME280;31429;42.674;23.350;2023-05-14T00:48:08;95196.72;;;14.93;100.00
23164;BME280;31429;42.674;23.350;2023-05-14T00:49:09;95192.72;;;15.05;99.05
23164;BME280;31429;42.674;23.350;2023-05-14T00:50:10;95191.38;;;14.98;97.53
23164;BME280;31429;42.674;23.350;2023-05-14T00:51:11;95187.78;;;14.83;95.25
23164;BME280;31429;42.674;23.350;2023-05-14T00:52:12;95184.44;;;14.81;96.75
23164;BME280;31429;42.674;23.350;2023-05-14T00:53:13;95194.81;;;14.79;95.53
23164;BME280;31429;42.674;23.350;2023-05-14T00:54:15;95198.88;;;14.66;94.97
23164;BME280;31429;42.674;23.350;2023-05-14T00:55:16;95193.09;;;14.61;95.87
23164;BME280;31429;42.674;23.350;2023-05-14T00:56:17;95190.66;;;14.58;94.97
23164;BME280;31429;42.674;23.350;2023-05-14T00:57:18;95186.56;;;14.54;95.68
23164;BME280;31429;42.674;23.350;2023-05-14T00:58:19;95188.16;;;14.57;96.29
23164;BME280;31429;42.674;23.350;2023-05-14T00:59:20;95183.38;;;14.49;97.12
23164;BME280;31429;42.674;23.350;2023-05-14T01:00:21;95188.38;;;14.52;96.65
23164;BME280;31429;42.674;23.350;2023-05-14T01:01:22;95181.97;;;14.61;98.62
23164;BME280;31429;42.674;23.350;2023-05-14T01:02:22;95179.44;;;14.59;97.87
23164;BME280;31429;42.674;23.350;2023-05-14T01:03:24;95177.09;;;14.55;97.27
23164;BME280;31429;42.674;23.350;2023-05-14T01:04:25;95176.97;;;14.58;100.00
23164;BME280;31429;42.674;23.350;2023-05-14T01:05:28;95174.31;;;14.59;96.33
23164;BME280;31429;42.674;23.350;2023-05-14T01:06:37;95179.19;;;14.47;96.96
23164;BME280;31429;42.674;23.350;2023-05-14T01:07:50;95179.63;;;14.37;97.61
23164;BME280;31429;42.674;23.350;2023-05-14T01:09:00;95181.50;;;14.34;98.62
23164;BME280;31429;42.674;23.350;2023-05-14T01:10:08;95179.84;;;14.33;98.37
23164;BME280;31429;42.674;23.350;2023-05-14T01:11:17;95185.56;;;14.57;100.00
23164;BME280;31429;42.674;23.350;2023-05-14T01:12:22;95184.25;;;14.48;96.22
23164;BME280;31429;42.674;23.350;2023-05-14T01:13:32;95176.22;;;14.37;97.13
23164;BME280;31429;42.674;23.350;2023-05-14T01:14:40;95178.91;;;14.34;99.02
23164;BME280;31429;42.674;23.350;2023-05-14T01:15:43;95177.19;;;14.34;97.56
23164;BME280;31429;42.674;23.350;2023-05-14T01:16:47;95178.03;;;14.35;97.99
23164;BME280;31429;42.674;23.350;2023-05-14T01:17:52;95178.16;;;14.32;98.36
23164;BME280;31429;42.674;23.350;2023-05-14T01:18:57;95174.59;;;14.34;97.91
23164;BME280;31429;42.674;23.350;2023-05-14T01:19:59;95166.63;;;14.41;96.24
23164;BME280;31429;42.674;23.350;2023-05-14T01:21:01;95169.06;;;14.44;95.58
23164;BME280;31429;42.674;23.350;2023-05-14T01:22:03;95175.22;;;14.39;96.56
23164;BME280;31429;42.674;23.350;2023-05-14T01:23:04;95175.84;;;14.45;99.41
23164;BME280;31429;42.674;23.350;2023-05-14T01:24:05;95187.56;;;14.33;97.08
23164;BME280;31429;42.674;23.350;2023-05-14T01:25:07;95188.03;;;14.41;95.70
23164;BME280;31429;42.674;23.350;2023-05-14T01:26:08;95191.78;;;14.34;95.27
23164;BME280;31429;42.674;23.350;2023-05-14T01:27:13;95191.97;;;14.29;96.60
23164;BME280;31429;42.674;23.350;2023-05-14T01:28:18;95193.00;;;14.25;94.94
23164;BME280;31429;42.674;23.350;2023-05-14T01:29:21;95204.06;;;14.27;96.15
23164;BME280;31429;42.674;23.350;2023-05-14T01:30:24;95198.94;;;14.27;97.59
23164;BME280;31429;42.674;23.350;2023-05-14T01:31:29;95204.06;;;14.27;94.81
23164;BME280;31429;42.674;23.350;2023-05-14T01:32:32;95206.91;;;14.21;96.51
23164;BME280;31429;42.674;23.350;2023-05-14T01:33:34;95205.97;;;14.22;95.54
23164;BME280;31429;42.674;23.350;2023-05-14T01:34:36;95201.75;;;14.21;96.31
23164;BME280;31429;42.674;23.350;2023-05-14T01:35:39;95198.41;;;14.19;96.80
23164;BME280;31429;42.674;23.350;2023-05-14T01:36:41;95204.59;;;14.15;96.48
23164;BME280;31429;42.674;23.350;2023-05-14T01:37:44;95202.78;;;14.17;98.85
23164;BME280;31429;42.674;23.350;2023-05-14T01:38:48;95202.94;;;14.14;96.75
23164;BME280;31429;42.674;23.350;2023-05-14T01:39:50;95204.88;;;14.09;97.79
23164;BME280;31429;42.674;23.350;2023-05-14T01:40:52;95196.09;;;14.13;97.13
23164;BME280;31429;42.674;23.350;2023-05-14T01:41:54;95202.22;;;14.11;97.89
23164;BME280;31429;42.674;23.350;2023-05-14T01:42:56;95205.56;;;14.13;97.94
23164;BME280;31429;42.674;23.350;2023-05-14T01:43:56;95205.56;;;14.13;98.03
23164;BME280;31429;42.674;23.350;2023-05-14T01:44:57;95207.22;;;14.14;97.69
23164;BME280;31429;42.674;23.350;2023-05-14T01:45:58;95207.22;;;14.14;97.87
23164;BME280;31429;42.674;23.350;2023-05-14T01:46:59;95208.06;;;14.14;96.76
23164;BME280;31429;42.674;23.350;2023-05-14T01:47:59;95199.72;;;14.09;97.50
23164;BME280;31429;42.674;23.350;2023-05-14T01:49:00;95206.94;;;14.01;97.95
23164;BME280;31429;42.674;23.350;2023-05-14T01:50:01;95202.44;;;14.06;97.68
23164;BME280;31429;42.674;23.350;2023-05-14T01:51:01;95201.53;;;14.07;97.93
23164;BME280;31429;42.674;23.350;2023-05-14T01:52:02;95199.72;;;14.09;99.40
23164;BME280;31429;42.674;23.350;2023-05-14T01:53:04;95197.22;;;14.08;97.32
23164;BME280;31429;42.674;23.350;2023-05-14T01:54:05;95195.69;;;14.04;98.90
23164;BME280;31429;42.674;23.350;2023-05-14T01:55:07;95199.25;;;14.01;98.22
23164;BME280;31429;42.674;23.350;2023-05-14T01:56:08;95200.84;;;14.04;100.00
23164;BME280;31429;42.674;23.350;2023-05-14T01:57:08;95204.78;;;14.11;99.33
23164;BME280;31429;42.674;23.350;2023-05-14T01:58:09;95204.88;;;14.09;99.75
23164;BME280;31429;42.674;23.350;2023-05-14T01:59:10;95206.72;;;14.06;100.00
23164;BME280;31429;42.674;23.350;2023-05-14T02:00:11;95210.16;;;14.06;100.00
23164;BME280;31429;42.674;23.350;2023-05-14T02:01:12;95208.28;;;14.10;100.00
23164;BME280;31429;42.674;23.350;2023-05-14T02:02:12;95208.72;;;13.99;100.00
23164;BME280;31429;42.674;23.350;2023-05-14T02:03:13;95214.03;;;13.96;100.00
23164;BME280;31429;42.674;23.350;2023-05-14T02:04:13;95215.94;;;13.91;100.00
23164;BME280;31429;42.674;23.350;2023-05-14T02:05:14;95216.03;;;13.90;100.00
23164;BME280;31429;42.674;23.350;2023-05-14T02:06:15;95205.25;;;13.81;100.00
23164;BME280;31429;42.674;23.350;2023-05-14T02:07:15;95206.34;;;13.76;100.00
23164;BME280;31429;42.674;23.350;2023-05-14T02:08:17;95207.34;;;13.92;100.00
23164;BME280;31429;42.674;23.350;2023-05-14T02:09:18;95204.81;;;13.91;100.00
23164;BME280;31429;42.674;23.350;2023-05-14T02:10:19;95205.63;;;13.72;100.00
23164;BME280;31429;42.674;23.350;2023-05-14T02:11:19;95206.84;;;13.84;100.00
23164;BME280;31429;42.674;23.350;2023-05-14T02:12:21;95215.66;;;13.78;100.00
23164;BME280;31429;42.674;23.350;2023-05-14T02:13:21;95209.34;;;13.65;100.00
23164;BME280;31429;42.674;23.350;2023-05-14T02:14:22;95203.06;;;13.72;100.00
23164;BME280;31429;42.674;23.350;2023-05-14T02:15:23;95204.28;;;13.84;100.00
23164;BME280;31429;42.674;23.350;2023-05-14T02:16:23;95205.88;;;13.87;100.00
23164;BME280;31429;42.674;23.350;2023-05-14T02:17:25;95200.50;;;13.72;100.00
23164;BME280;31429;42.674;23.350;2023-05-14T02:18:25;95201.63;;;13.65;100.00
23164;BME280;31429;42.674;23.350;2023-05-14T02:19:26;95199.75;;;13.50;100.00
23164;BME280;31429;42.674;23.350;2023-05-14T02:20:27;95203.56;;;13.40;100.00
23164;BME280;31429;42.674;23.350;2023-05-14T02:21:27;95202.72;;;13.40;100.00
23164;BME280;31429;42.674;23.350;2023-05-14T02:22:28;95207.94;;;13.38;100.00
23164;BME280;31429;42.674;23.350;2023-05-14T02:23:30;95208.03;;;13.37;100.00
23164;BME280;31429;42.674;23.350;2023-05-14T02:24:30;95218.22;;;13.38;100.00
23164;BME280;31429;42.674;23.350;2023-05-14T02:25:31;95214.69;;;13.41;100.00
23164;BME280;31429;42.674;23.350;2023-05-14T02:26:32;95215.56;;;13.40;100.00
23164;BME280;31429;42.674;23.350;2023-05-14T02:27:32;95218.34;;;13.35;100.00
23164;BME280;31429;42.674;23.350;2023-05-14T02:28:33;95218.34;;;13.35;100.00
23164;BME280;31429;42.674;23.350;2023-05-14T02:29:33;95218.53;;;13.31;100.00
23164;BME280;31429;42.674;23.350;2023-05-14T02:30:34;95220.78;;;13.38;100.00
23164;BME280;31429;42.674;23.350;2023-05-14T02:31:35;95221.88;;;13.33;100.00
23164;BME280;31429;42.674;23.350;2023-05-14T02:32:36;95217.75;;;13.29;100.00
23164;BME280;31429;42.674;23.350;2023-05-14T02:33:36;95214.63;;;13.22;100.00
23164;BME280;31429;42.674;23.350;2023-05-14T02:34:37;95219.03;;;13.18;100.00
23164;BME280;31429;42.674;23.350;2023-05-14T02:35:38;95221.69;;;13.37;100.00
23164;BME280;31429;42.674;23.350;2023-05-14T02:36:38;95223.59;;;13.32;100.00
23164;BME280;31429;42.674;23.350;2023-05-14T02:37:39;95222.97;;;13.27;100.00
23164;BME280;31429;42.674;23.350;2023-05-14T02:38:41;95227.66;;;13.38;100.00
23164;BME280;31429;42.674;23.350;2023-05-14T02:39:42;95231.19;;;13.35;100.00
23164;BME280;31429;42.674;23.350;2023-05-14T02:40:42;95229.63;;;13.31;100.00
23164;BME280;31429;42.674;23.350;2023-05-14T02:41:43;95228.34;;;13.21;100.00
23164;BME280;31429;42.674;23.350;2023-05-14T02:42:44;95233.41;;;13.22;100.00
23164;BME280;31429;42.674;23.350;2023-05-14T02:43:44;95233.41;;;13.22;100.00
23164;BME280;31429;42.674;23.350;2023-05-14T02:44:45;95239.50;;;13.20;100.00
23164;BME280;31429;42.674;23.350;2023-05-14T02:45:46;95233.72;;;13.15;100.00
23164;BME280;31429;42.674;23.350;2023-05-14T02:46:46;95235.72;;;13.07;100.00
23164;BME280;31429;42.674;23.350;2023-05-14T02:47:47;95242.13;;;13.18;100.00
23164;BME280;31429;42.674;23.350;2023-05-14T02:48:47;95241.06;;;13.24;100.00
23164;BME280;31429;42.674;23.350;2023-05-14T02:49:48;95236.03;;;13.21;100.00
23164;BME280;31429;42.674;23.350;2023-05-14T02:50:49;95238.59;;;13.21;100.00
23164;BME280;31429;42.674;23.350;2023-05-14T02:51:51;95239.81;;;13.12;100.00
23164;BME280;31429;42.674;23.350;2023-05-14T02:52:53;95243.63;;;13.24;100.00
23164;BME280;31429;42.674;23.350;2023-05-14T02:53:55;95236.13;;;13.19;100.00
23164;BME280;31429;42.674;23.350;2023-05-14T02:54:56;95241.81;;;13.26;100.00
23164;BME280;31429;42.674;23.350;2023-05-14T02:55:56;95239.38;;;13.23;100.00
23164;BME280;31429;42.674;23.350;2023-05-14T02:56:57;95242.75;;;13.25;100.00
23164;BME280;31429;42.674;23.350;2023-05-14T02:57:58;95238.75;;;13.38;100.00
23164;BME280;31429;42.674;23.350;2023-05-14T02:58:58;95241.06;;;13.24;100.00
23164;BME280;31429;42.674;23.350;2023-05-14T02:59:59;95239.56;;;13.18;100.00
23164;BME280;31429;42.674;23.350;2023-05-14T03:01:00;95238.69;;;13.19;100.00
23164;BME280;31429;42.674;23.350;2023-05-14T03:02:00;95239.97;;;13.30;100.00
23164;BME280;31429;42.674;23.350;2023-05-14T03:03:01;95242.41;;;13.33;100.00
23164;BME280;31429;42.674;23.350;2023-05-14T03:04:02;95242.41;;;13.33;100.00
23164;BME280;31429;42.674;23.350;2023-05-14T03:05:03;95236.63;;;13.28;100.00
23164;BME280;31429;42.674;23.350;2023-05-14T03:06:04;95234.47;;;13.17;100.00
23164;BME280;31429;42.674;23.350;2023-05-14T03:07:05;95238.94;;;13.13;100.00
23164;BME280;31429;42.674;23.350;2023-05-14T03:08:05;95238.94;;;13.13;100.00
23164;BME280;31429;42.674;23.350;2023-05-14T03:09:07;95237.81;;;13.41;100.00
23164;BME280;31429;42.674;23.350;2023-05-14T03:10:09;95238.56;;;13.43;100.00
23164;BME280;31429;42.674;23.350;2023-05-14T03:11:09;95243.50;;;13.27;100.00
23164;BME280;31429;42.674;23.350;2023-05-14T03:12:10;95240.63;;;13.35;100.00
23164;BME280;31429;42.674;23.350;2023-05-14T03:13:12;95232.78;;;13.38;100.00
23164;BME280;31429;42.674;23.350;2023-05-14T03:14:16;95229.06;;;13.24;100.00
23164;BME280;31429;42.674;23.350;2023-05-14T03:15:17;95227.34;;;13.25;100.00
23164;BME280;31429;42.674;23.350;2023-05-14T03:16:18;95220.41;;;13.27;100.00
23164;BME280;31429;42.674;23.350;2023-05-14T03:17:18;95225.31;;;13.32;100.00
23164;BME280;31429;42.674;23.350;2023-05-14T03:18:19;95214.16;;;13.33;100.00
23164;BME280;31429;42.674;23.350;2023-05-14T03:19:20;95210.75;;;13.32;100.00
23164;BME280;31429;42.674;23.350;2023-05-14T03:20:21;95212.75;;;13.25;100.00
23164;BME280;31429;42.674;23.350;2023-05-14T03:21:22;95215.91;;;13.32;100.00
23164;BME280;31429;42.674;23.350;2023-05-14T03:22:23;95216.53;;;13.37;100.00
23164;BME280;31429;42.674;23.350;2023-05-14T03:23:23;95219.63;;;13.45;100.00
23164;BME280;31429;42.674;23.350;2023-05-14T03:24:25;95219.19;;;13.36;100.00
23164;BME280;31429;42.674;23.350;2023-05-14T03:25:26;95226.03;;;13.35;100.00
23164;BME280;31429;42.674;23.350;2023-05-14T03:26:27;95225.03;;;13.39;100.00
23164;BME280;31429;42.674;23.350;2023-05-14T03:27:27;95222.13;;;13.27;100.00
23164;BME280;31429;42.674;23.350;2023-05-14T03:28:28;95225.84;;;13.19;100.00
23164;BME280;31429;42.674;23.350;2023-05-14T03:29:29;95227.63;;;13.17;100.00
23164;BME280;31429;42.674;23.350;2023-05-14T03:30:30;95222.59;;;13.14;100.00
23164;BME280;31429;42.674;23.350;2023-05-14T03:31:30;95223.31;;;13.18;100.00
23164;BME280;31429;42.674;23.350;2023-05-14T03:32:31;95216.06;;;13.07;100.00
23164;BME280;31429;42.674;23.350;2023-05-14T03:33:32;95224.03;;;13.00;100.00
23164;BME280;31429;42.674;23.350;2023-05-14T03:34:33;95223.31;;;12.96;100.00
23164;BME280;31429;42.674;23.350;2023-05-14T03:35:33;95231.19;;;12.92;100.00
23164;BME280;31429;42.674;23.350;2023-05-14T03:36:34;95234.25;;;13.01;100.00
23164;BME280;31429;42.674;23.350;2023-05-14T03:37:37;95239.69;;;12.94;100.00
23164;BME280;31429;42.674;23.350;2023-05-14T03:38:37;95236.69;;;12.83;100.00
23164;BME280;31429;42.674;23.350;2023-05-14T03:39:39;95238.47;;;12.81;100.00
23164;BME280;31429;42.674;23.350;2023-05-14T03:40:40;95247.84;;;12.82;100.00
23164;BME280;31429;42.674;23.350;2023-05-14T03:41:40;95245.59;;;12.74;100.00
23164;BME280;31429;42.674;23.350;2023-05-14T03:42:41;95236.31;;;12.70;100.00
23164;BME280;31429;42.674;23.350;2023-05-14T03:43:42;95243.38;;;12.87;100.00
23164;BME280;31429;42.674;23.350;2023-05-14T03:44:43;95233.69;;;12.72;100.00
23164;BME280;31429;42.674;23.350;2023-05-14T03:45:43;95234.00;;;12.64;100.00
23164;BME280;31429;42.674;23.350;2023-05-14T03:46:44;95223.19;;;12.56;100.00
23164;BME280;31429;42.674;23.350;2023-05-14T03:47:45;95235.19;;;12.55;100.00
23164;BME280;31429;42.674;23.350;2023-05-14T03:48:45;95230.25;;;12.73;100.00
23164;BME280;31429;42.674;23.350;2023-05-14T03:49:46;95238.13;;;12.68;100.00
23164;BME280;31429;42.674;23.350;2023-05-14T03:50:46;95239.56;;;12.52;100.00
23164;BME280;31429;42.674;23.350;2023-05-14T03:51:47;95231.19;;;12.48;100.00
23164;BME280;31429;42.674;23.350;2023-05-14T03:52:48;95238.56;;;12.56;100.00
23164;BME280;31429;42.674;23.350;2023-05-14T03:53:48;95226.59;;;12.56;100.00
23164;BME280;31429;42.674;23.350;2023-05-14T03:54:50;95235.25;;;12.54;100.00
23164;BME280;31429;42.674;23.350;2023-05-14T03:55:51;95236.19;;;12.51;100.00
23164;BME280;31429;42.674;23.350;2023-05-14T03:56:52;95237.41;;;12.64;100.00
23164;BME280;31429;42.674;23.350;2023-05-14T03:57:52;95236.75;;;12.59;100.00
23164;BME280;31429;42.674;23.350;2023-05-14T03:58:53;95236.50;;;12.65;100.00
23164;BME280;31429;42.674;23.350;2023-05-14T03:59:53;95234.88;;;12.63;100.00
23164;BME280;31429;42.674;23.350;2023-05-14T04:00:54;95235.56;;;12.68;100.00
23164;BME280;31429;42.674;23.350;2023-05-14T04:01:55;95226.63;;;12.55;100.00
23164;BME280;31429;42.674;23.350;2023-05-14T04:02:55;95228.03;;;12.63;100.00
23164;BME280;31429;42.674;23.350;2023-05-14T04:03:56;95232.03;;;12.71;100.00
23164;BME280;31429;42.674;23.350;2023-05-14T04:04:56;95229.47;;;12.71;100.00
23164;BME280;31429;42.674;23.350;2023-05-14T04:05:57;95232.91;;;12.69;100.00
23164;BME280;31429;42.674;23.350;2023-05-14T04:06:58;95233.94;;;12.65;100.00
23164;BME280;31429;42.674;23.350;2023-05-14T04:07:58;95237.22;;;12.69;100.00
23164;BME280;31429;42.674;23.350;2023-05-14T04:08:59;95235.59;;;12.66;100.00
23164;BME280;31429;42.674;23.350;2023-05-14T04:10:01;95243.41;;;12.63;100.00
23164;BME280;31429;42.674;23.350;2023-05-14T04:11:02;95239.22;;;12.61;100.00
23164;BME280;31429;42.674;23.350;2023-05-14T04:12:03;95239.13;;;12.64;100.00
23164;BME280;31429;42.674;23.350;2023-05-14T04:13:03;95236.44;;;12.67;100.00
23164;BME280;31429;42.674;23.350;2023-05-14T04:14:05;95236.22;;;12.73;100.00
23164;BME280;31429;42.674;23.350;2023-05-14T04:15:06;95244.66;;;12.75;100.00
23164;BME280;31429;42.674;23.350;2023-05-14T04:16:07;95245.69;;;12.71;100.00
23164;BME280;31429;42.674;23.350;2023-05-14T04:17:08;95246.63;;;12.68;100.00
23164;BME280;31429;42.674;23.350;2023-05-14T04:18:09;95255.00;;;12.74;100.00
23164;BME280;31429;42.674;23.350;2023-05-14T04:19:09;95242.84;;;12.79;100.00
23164;BME280;31429;42.674;23.350;2023-05-14T04:20:10;95243.72;;;12.78;100.00
23164;BME280;31429;42.674;23.350;2023-05-14T04:21:11;95243.47;;;12.84;100.00
23164;BME280;31429;42.674;23.350;2023-05-14T04:22:11;95249.28;;;12.89;100.00
23164;BME280;31429;42.674;23.350;2023-05-14T04:23:12;95252.09;;;12.83;100.00
23164;BME280;31429;42.674;23.350;2023-05-14T04:24:13;95249.53;;;12.83;100.00
23164;BME280;31429;42.674;23.350;2023-05-14T04:25:15;95243.56;;;12.82;100.00
23164;BME280;31429;42.674;23.350;2023-05-14T04:26:17;95247.97;;;12.79;100.00
23164;BME280;31429;42.674;23.350;2023-05-14T04:27:19;95251.38;;;12.79;100.00
23164;BME280;31429;42.674;23.350;2023-05-14T04:28:20;95243.78;;;12.76;100.00
23164;BME280;31429;42.674;23.350;2023-05-14T04:29:21;95245.63;;;12.73;100.00
23164;BME280;31429;42.674;23.350;2023-05-14T04:30:21;95254.72;;;12.81;100.00
23164;BME280;31429;42.674;23.350;2023-05-14T04:31:22;95259.00;;;12.81;100.00
23164;BME280;31429;42.674;23.350;2023-05-14T04:32:23;95260.13;;;12.74;100.00
23164;BME280;31429;42.674;23.350;2023-05-14T04:33:23;95257.56;;;12.74;100.00
23164;BME280;31429;42.674;23.350;2023-05-14T04:34:24;95261.78;;;12.75;100.00
23164;BME280;31429;42.674;23.350;2023-05-14T04:35:25;95261.03;;;12.73;100.00
23164;BME280;31429;42.674;23.350;2023-05-14T04:36:27;95262.63;;;12.75;100.00
23164;BME280;31429;42.674;23.350;2023-05-14T04:37:27;95266.69;;;12.81;100.00
23164;BME280;31429;42.674;23.350;2023-05-14T04:38:28;95267.72;;;12.77;100.00
23164;BME280;31429;42.674;23.350;2023-05-14T04:39:28;95269.25;;;12.81;100.00
23164;BME280;31429;42.674;23.350;2023-05-14T04:40:30;95278.00;;;12.77;100.00
23164;BME280;31429;42.674;23.350;2023-05-14T04:41:31;95276.91;;;12.82;100.00
23164;BME280;31429;42.674;23.350;2023-05-14T04:42:32;95278.00;;;12.77;100.00
23164;BME280;31429;42.674;23.350;2023-05-14T04:43:33;95275.34;;;12.78;100.00
23164;BME280;31429;42.674;23.350;2023-05-14T04:44:33;95277.88;;;12.80;100.00
23164;BME280;31429;42.674;23.350;2023-05-14T04:45:34;95274.69;;;12.95;100.00
23164;BME280;31429;42.674;23.350;2023-05-14T04:46:35;95274.47;;;13.01;100.00
23164;BME280;31429;42.674;23.350;2023-05-14T04:47:35;95281.75;;;12.90;100.00
23164;BME280;31429;42.674;23.350;2023-05-14T04:48:36;95274.34;;;12.82;100.00
23164;BME280;31429;42.674;23.350;2023-05-14T04:49:37;95284.22;;;12.69;100.00
23164;BME280;31429;42.674;23.350;2023-05-14T04:50:37;95280.66;;;12.74;100.00
23164;BME280;31429;42.674;23.350;2023-05-14T04:51:38;95283.56;;;12.64;100.00
23164;BME280;31429;42.674;23.350;2023-05-14T04:52:38;95283.50;;;12.66;100.00
23164;BME280;31429;42.674;23.350;2023-05-14T04:53:39;95285.59;;;12.56;100.00
23164;BME280;31429;42.674;23.350;2023-05-14T04:54:40;95288.81;;;12.61;100.00
23164;BME280;31429;42.674;23.350;2023-05-14T04:55:42;95284.22;;;12.46;100.00
23164;BME280;31429;42.674;23.350;2023-05-14T04:56:42;95293.72;;;12.44;100.00
23164;BME280;31429;42.674;23.350;2023-05-14T04:57:43;95286.44;;;12.34;100.00
23164;BME280;31429;42.674;23.350;2023-05-14T04:58:43;95298.00;;;12.44;100.00
23164;BME280;31429;42.674;23.350;2023-05-14T04:59:44;95293.31;;;12.55;100.00
23164;BME280;31429;42.674;23.350;2023-05-14T05:00:45;95292.09;;;12.42;100.00
23164;BME280;31429;42.674;23.350;2023-05-14T05:01:45;95294.44;;;12.25;100.00
23164;BME280;31429;42.674;23.350;2023-05-14T05:02:46;95291.88;;;12.25;100.00
23164;BME280;31429;42.674;23.350;2023-05-14T05:03:47;95299.78;;;12.19;100.00
23164;BME280;31429;42.674;23.350;2023-05-14T05:04:47;95301.94;;;12.29;100.00
23164;BME280;31429;42.674;23.350;2023-05-14T05:05:48;95303.84;;;12.24;100.00
23164;BME280;31429;42.674;23.350;2023-05-14T05:06:49;95308.25;;;12.21;100.00
23164;BME280;31429;42.674;23.350;2023-05-14T05:07:49;95306.63;;;12.18;100.00
23164;BME280;31429;42.674;23.350;2023-05-14T05:08:50;95307.75;;;12.11;100.00
23164;BME280;31429;42.674;23.350;2023-05-14T05:09:51;95305.78;;;12.18;100.00
23164;BME280;31429;42.674;23.350;2023-05-14T05:10:53;95305.06;;;12.14;100.00
23164;BME280;31429;42.674;23.350;2023-05-14T05:11:53;95311.59;;;11.98;100.00
23164;BME280;31429;42.674;23.350;2023-05-14T05:12:54;95317.56;;;11.98;100.00
23164;BME280;31429;42.674;23.350;2023-05-14T05:13:55;95321.28;;;11.90;100.00
23164;BME280;31429;42.674;23.350;2023-05-14T05:14:55;95327.31;;;11.89;100.00
23164;BME280;31429;42.674;23.350;2023-05-14T05:15:56;95327.50;;;11.83;100.00
23164;BME280;31429;42.674;23.350;2023-05-14T05:16:57;95330.19;;;11.80;100.00